Time;durP1;ratioP1;P1;durP2;ratioP2;P2;SDS_P1;SDS_P2;PMS_P1;PMS_P2;Temp;Humidity;BMP_temperature;BMP_pressure;BME280_temperature;BME280_humidity;BME280_pressure;Samples;Min_cycle;Max_cycle;Signal;HPM_P1;HPM_P2
2023/11/22 00:02:00;;;;;;;14.77;10.88;;;8.10;99.90;;;;;;6229064;28;20046;-80
2023/11/22 00:05:03;;;;;;;14.10;9.63;;;8.10;99.90;;;;;;6221382;28;20147;-79
2023/11/22 00:08:05;;;;;;;14.82;9.48;;;8.00;99.90;;;;;;6229339;28;20046;-79
2023/11/22 00:11:07;;;;;;;15.20;9.95;;;8.00;99.90;;;;;;6230021;28;20053;-80
2023/11/22 00:14:08;;;;;;;15.95;10.88;;;8.00;99.90;;;;;;6229722;28;20578;-79
2023/11/22 00:17:12;;;;;;;13.10;10.55;;;7.90;99.90;;;;;;6229091;28;20072;-80
2023/11/22 00:20:13;;;;;;;12.18;8.15;;;7.90;99.90;;;;;;6228660;28;20059;-79
2023/11/22 00:23:15;;;;;;;11.98;9.43;;;7.80;99.90;;;;;;6229732;28;20195;-80
2023/11/22 00:26:17;;;;;;;10.77;7.40;;;7.70;99.90;;;;;;6229597;28;20093;-80
2023/11/22 00:29:19;;;;;;;12.32;8.52;;;7.70;99.90;;;;;;6228854;28;20431;-80
2023/11/22 00:32:22;;;;;;;11.68;8.38;;;7.60;99.90;;;;;;6228553;28;20583;-79
2023/11/22 00:35:24;;;;;;;13.45;8.95;;;7.50;99.90;;;;;;6229359;28;20050;-79
2023/11/22 00:38:25;;;;;;;16.58;7.10;;;7.40;99.90;;;;;;6228867;28;20050;-79
2023/11/22 00:41:31;;;;;;;10.40;7.15;;;7.30;99.90;;;;;;6229183;28;20073;-78
2023/11/22 00:44:33;;;;;;;10.32;6.93;;;7.10;99.90;;;;;;6228195;28;20522;-80
2023/11/22 00:47:36;;;;;;;7.53;6.13;;;7.00;99.90;;;;;;6228389;28;20069;-79
2023/11/22 00:50:37;;;;;;;8.35;6.28;;;6.90;99.90;;;;;;6228317;28;20125;-80
2023/11/22 00:53:39;;;;;;;6.80;6.05;;;6.80;99.90;;;;;;6229272;28;20521;-79
2023/11/22 00:56:41;;;;;;;8.25;6.53;;;6.70;99.90;;;;;;6228592;28;20054;-79
2023/11/22 00:59:43;;;;;;;11.45;6.43;;;6.60;99.90;;;;;;6228561;28;20054;-79
2023/11/22 01:02:46;;;;;;;10.02;6.40;;;6.50;99.90;;;;;;6228354;28;20112;-79
2023/11/22 01:05:48;;;;;;;7.65;5.97;;;6.50;99.90;;;;;;6227488;28;20057;-81
2023/11/22 01:08:50;;;;;;;8.98;6.68;;;6.40;99.90;;;;;;6226986;28;20177;-80
2023/11/22 01:11:52;;;;;;;10.15;6.55;;;6.40;99.90;;;;;;6227829;28;20057;-81
2023/11/22 01:14:54;;;;;;;11.07;5.82;;;6.40;99.90;;;;;;6227219;28;20046;-79
2023/11/22 01:17:57;;;;;;;10.35;6.97;;;6.30;99.90;;;;;;6226533;28;20042;-80
2023/11/22 01:20:59;;;;;;;8.52;5.30;;;6.20;99.90;;;;;;6228107;28;20072;-79
2023/11/22 01:24:01;;;;;;;8.63;5.90;;;6.00;99.90;;;;;;6226885;28;20046;-80
2023/11/22 01:27:03;;;;;;;9.10;6.32;;;5.90;99.90;;;;;;6227655;28;20056;-80
2023/11/22 01:30:07;;;;;;;8.32;5.75;;;5.80;99.90;;;;;;6226022;28;20399;-80
2023/11/22 01:33:10;;;;;;;8.75;6.50;;;5.80;99.90;;;;;;6226742;28;20395;-81
2023/11/22 01:36:12;;;;;;;6.82;5.70;;;5.80;99.90;;;;;;6226807;28;20072;-80
2023/11/22 01:39:14;;;;;;;10.27;6.82;;;5.70;99.90;;;;;;6227392;28;20054;-80
2023/11/22 01:42:16;;;;;;;8.85;5.82;;;5.70;99.90;;;;;;6226651;28;20072;-80
2023/11/22 01:45:18;;;;;;;12.32;6.97;;;5.70;99.90;;;;;;6226272;28;20419;-80
2023/11/22 01:48:22;;;;;;;8.10;6.90;;;5.70;99.90;;;;;;6224939;28;20049;-80
2023/11/22 01:51:24;;;;;;;9.32;6.50;;;5.60;99.90;;;;;;6225546;28;20057;-79
2023/11/22 01:54:26;;;;;;;10.13;6.93;;;5.60;99.90;;;;;;6225200;28;20052;-80
2023/11/22 01:57:28;;;;;;;7.55;6.25;;;5.60;99.90;;;;;;6225398;28;20068;-80
2023/11/22 02:00:36;;;;;;;11.50;7.82;;;5.50;99.90;;;;;;6226116;28;20054;-80
2023/11/22 02:03:39;;;;;;;10.68;7.30;;;5.50;99.90;;;;;;6226836;28;20160;-81
2023/11/22 02:06:41;;;;;;;8.48;6.70;;;5.50;99.90;;;;;;6226368;28;20041;-80
2023/11/22 02:09:43;;;;;;;9.77;6.07;;;5.40;99.90;;;;;;6224796;28;20049;-81
2023/11/22 02:12:45;;;;;;;7.40;5.88;;;5.40;99.90;;;;;;6223146;28;20050;-79
2023/11/22 02:15:47;;;;;;;10.55;6.05;;;5.40;99.90;;;;;;6226123;28;20049;-80
2023/11/22 02:18:50;;;;;;;9.70;6.95;;;5.30;99.90;;;;;;6224907;28;20046;-80
2023/11/22 02:21:52;;;;;;;9.27;6.57;;;5.40;99.90;;;;;;6225086;28;20497;-80
2023/11/22 02:24:55;;;;;;;9.32;5.75;;;5.40;99.90;;;;;;6224462;28;20056;-79
2023/11/22 02:27:57;;;;;;;7.72;6.25;;;5.40;99.90;;;;;;6225594;28;20046;-81
2023/11/22 02:30:58;;;;;;;8.85;5.60;;;5.30;99.90;;;;;;6225657;28;20046;-81
2023/11/22 02:34:00;;;;;;;9.25;6.72;;;5.30;99.90;;;;;;6233700;28;20049;-80
2023/11/22 02:37:04;;;;;;;9.30;5.15;;;5.30;99.90;;;;;;6224998;28;20058;-81
2023/11/22 02:40:14;;;;;;;5.68;4.47;;;5.30;99.90;;;;;;6216633;28;20461;-81
2023/11/22 02:43:16;;;;;;;8.38;4.75;;;5.30;99.90;;;;;;6240946;28;20060;-81
2023/11/22 02:46:52;;;;;;;5.07;3.42;;;5.30;99.90;;;;;;6232998;28;20137;-81
2023/11/22 02:49:55;;;;;;;5.38;3.90;;;5.20;99.90;;;;;;6226079;28;20431;-81
2023/11/22 02:52:57;;;;;;;4.90;3.55;;;5.20;99.90;;;;;;6217867;28;20046;-81
2023/11/22 02:56:01;;;;;;;5.88;3.65;;;5.10;99.90;;;;;;6226336;28;20050;-82
2023/11/22 02:59:03;;;;;;;6.60;3.47;;;5.10;99.90;;;;;;6210438;28;20423;-82
2023/11/22 03:02:05;;;;;;;5.40;4.03;;;5.10;99.90;;;;;;6216942;28;20578;-81
2023/11/22 03:05:09;;;;;;;5.22;3.70;;;5.10;99.90;;;;;;6225634;28;20149;-81
2023/11/22 03:08:12;;;;;;;4.97;3.80;;;5.20;99.90;;;;;;6225059;28;20072;-80
2023/11/22 03:11:16;;;;;;;5.55;4.32;;;5.20;99.90;;;;;;6227756;28;20128;-80
2023/11/22 03:14:18;;;;;;;4.18;3.42;;;5.20;99.90;;;;;;6215466;28;20046;-81
2023/11/22 03:17:19;;;;;;;7.63;4.68;;;5.20;99.90;;;;;;6220685;28;20046;-80
2023/11/22 03:20:21;;;;;;;9.68;4.30;;;5.10;99.90;;;;;;6215115;28;20042;-80
2023/11/22 03:23:23;;;;;;;4.28;3.88;;;5.10;99.90;;;;;;6212967;28;20061;-81
2023/11/22 03:26:26;;;;;;;5.50;3.67;;;5.00;99.90;;;;;;6218579;28;20050;-80
2023/11/22 03:29:29;;;;;;;12.48;5.88;;;5.10;99.90;;;;;;6214862;28;20579;-80
2023/11/22 03:32:30;;;;;;;5.00;4.10;;;5.00;99.90;;;;;;6221854;28;20132;-80
2023/11/22 03:35:32;;;;;;;5.57;3.83;;;5.00;99.90;;;;;;6218866;28;20495;-81
2023/11/22 03:38:34;;;;;;;5.53;4.35;;;5.00;99.90;;;;;;6217976;28;20454;-80
2023/11/22 03:41:38;;;;;;;9.40;5.03;;;5.10;99.90;;;;;;6218167;28;20050;-80
2023/11/22 03:44:39;;;;;;;8.20;5.07;;;5.10;99.90;;;;;;6214230;28;20046;-80
2023/11/22 03:47:41;;;;;;;6.88;4.93;;;5.00;99.90;;;;;;6215127;28;20060;-81
2023/11/22 03:50:43;;;;;;;10.13;5.38;;;5.10;99.90;;;;;;6226551;28;20050;-80
2023/11/22 03:53:45;;;;;;;7.65;6.07;;;5.10;99.90;;;;;;6213798;28;20042;-81
2023/11/22 03:56:48;;;;;;;6.82;5.47;;;5.00;99.90;;;;;;6216440;28;20049;-81
2023/11/22 03:59:49;;;;;;;14.80;4.88;;;5.00;99.90;;;;;;6223694;28;20076;-78
2023/11/22 04:02:51;;;;;;;9.68;5.78;;;5.00;99.90;;;;;;6217664;28;20050;-80
2023/11/22 04:05:53;;;;;;;12.43;7.00;;;4.90;99.90;;;;;;6225888;28;20157;-80
2023/11/22 04:08:55;;;;;;;12.50;8.85;;;4.90;99.90;;;;;;6227254;28;20391;-80
2023/11/22 04:11:58;;;;;;;9.80;6.93;;;4.90;99.90;;;;;;6219725;28;20065;-79
2023/11/22 04:15:00;;;;;;;16.58;6.28;;;4.90;99.90;;;;;;6224308;28;20053;-78
2023/11/22 04:18:02;;;;;;;11.23;6.50;;;4.90;99.90;;;;;;6225506;28;20049;-80
2023/11/22 04:21:04;;;;;;;9.98;6.97;;;4.80;99.90;;;;;;6225632;28;20045;-81
2023/11/22 04:24:07;;;;;;;9.57;6.90;;;4.80;99.90;;;;;;6241947;28;20050;-79
2023/11/22 04:27:10;;;;;;;10.45;5.95;;;4.80;99.90;;;;;;6226178;28;20049;-81
2023/11/22 04:30:14;;;;;;;11.23;7.15;;;4.70;99.90;;;;;;6223949;28;20037;-81
2023/11/22 04:33:16;;;;;;;11.73;6.55;;;4.60;99.90;;;;;;6228234;28;20064;-80
2023/11/22 04:36:17;;;;;;;10.32;6.25;;;4.60;99.90;;;;;;6229156;28;20046;-80
2023/11/22 04:39:19;;;;;;;9.10;6.22;;;4.50;99.90;;;;;;6229548;28;20060;-79
2023/11/22 04:42:23;;;;;;;8.85;5.35;;;4.40;99.90;;;;;;6238554;28;20061;-79
2023/11/22 04:45:25;;;;;;;6.93;4.55;;;4.40;99.90;;;;;;6237483;28;20076;-78
2023/11/22 04:48:26;;;;;;;12.05;5.07;;;4.30;99.90;;;;;;6231209;28;20037;-79
2023/11/22 04:51:29;;;;;;;6.88;4.95;;;4.30;99.90;;;;;;6238604;28;20516;-79
2023/11/22 04:54:31;;;;;;;7.53;4.57;;;4.20;99.90;;;;;;6238911;28;21578;-79
2023/11/22 04:57:34;;;;;;;7.78;4.40;;;4.20;99.90;;;;;;6239685;28;20149;-79
2023/11/22 05:00:36;;;;;;;7.22;5.30;;;4.10;99.90;;;;;;6230840;28;20042;-79
2023/11/22 05:03:38;;;;;;;9.40;5.68;;;3.90;99.90;;;;;;6229223;28;20054;-80
2023/11/22 05:06:40;;;;;;;7.00;4.40;;;3.80;99.90;;;;;;6227806;28;20046;-79
2023/11/22 05:09:43;;;;;;;6.38;4.47;;;3.70;99.90;;;;;;6231142;28;20153;-79
2023/11/22 05:12:46;;;;;;;8.43;5.07;;;3.60;99.90;;;;;;6223100;28;20046;-80
2023/11/22 05:15:48;;;;;;;7.05;5.53;;;3.50;99.90;;;;;;6209749;28;20047;-79
2023/11/22 05:18:50;;;;;;;10.27;5.82;;;3.40;99.90;;;;;;6202971;28;20062;-79
2023/11/22 05:21:52;;;;;;;8.52;5.47;;;3.40;99.90;;;;;;6202795;28;20038;-80
2023/11/22 05:24:53;;;;;;;7.72;4.53;;;3.30;99.90;;;;;;6215603;28;20430;-80
2023/11/22 05:27:56;;;;;;;9.40;7.65;;;3.20;99.90;;;;;;6210309;28;20406;-80
2023/11/22 05:30:58;;;;;;;8.38;5.55;;;3.20;99.90;;;;;;6203352;28;20476;-78
2023/11/22 05:34:00;;;;;;;7.25;5.32;;;3.10;99.90;;;;;;6201248;28;20042;-79
2023/11/22 05:37:01;;;;;;;10.52;6.15;;;3.10;99.90;;;;;;6215394;28;20052;-79
2023/11/22 05:40:05;;;;;;;7.25;5.65;;;3.00;99.90;;;;;;6210615;28;20424;-79
2023/11/22 05:43:08;;;;;;;12.90;5.40;;;3.00;99.90;;;;;;6203253;28;20065;-79
2023/11/22 05:46:12;;;;;;;8.98;5.88;;;3.00;99.90;;;;;;6210196;28;20042;-79
2023/11/22 05:49:14;;;;;;;12.90;7.32;;;2.90;99.90;;;;;;6220701;28;20056;-81
2023/11/22 05:52:16;;;;;;;12.07;7.13;;;2.90;99.90;;;;;;6204983;28;20077;-79
2023/11/22 05:55:18;;;;;;;11.27;7.25;;;2.80;99.90;;;;;;6221189;28;20046;-79
2023/11/22 05:58:22;;;;;;;8.57;6.55;;;2.80;99.90;;;;;;6212205;28;20560;-80
2023/11/22 06:01:24;;;;;;;9.05;6.88;;;2.80;99.90;;;;;;6205100;28;20057;-80
2023/11/22 06:04:25;;;;;;;9.45;6.72;;;2.80;99.90;;;;;;6221334;28;20046;-79
2023/11/22 06:07:28;;;;;;;13.00;8.55;;;2.80;99.90;;;;;;6226488;28;20046;-81
2023/11/22 06:10:29;;;;;;;8.48;6.25;;;2.80;99.90;;;;;;6229015;28;20143;-79
2023/11/22 06:13:32;;;;;;;11.43;7.28;;;2.80;99.90;;;;;;6237246;28;20136;-80
2023/11/22 06:16:34;;;;;;;11.10;5.90;;;2.80;99.90;;;;;;6229505;28;20053;-78
2023/11/22 06:19:36;;;;;;;11.27;7.13;;;2.70;99.90;;;;;;6229348;28;20076;-79
2023/11/22 06:22:40;;;;;;;9.98;6.53;;;2.70;99.90;;;;;;6235538;28;20518;-79
2023/11/22 06:25:43;;;;;;;7.72;6.22;;;2.70;99.90;;;;;;6241338;23;20050;-79
2023/11/22 06:28:49;;;;;;;12.18;6.88;;;2.70;99.90;;;;;;6202404;28;20051;-79
2023/11/22 06:31:50;;;;;;;13.25;5.88;;;2.60;99.90;;;;;;6199255;28;20054;-79
2023/11/22 06:34:52;;;;;;;10.13;7.82;;;2.50;99.90;;;;;;6214582;28;20045;-79
2023/11/22 06:37:54;;;;;;;9.00;6.05;;;2.50;99.90;;;;;;6212708;28;20553;-79
2023/11/22 06:40:55;;;;;;;14.88;6.30;;;2.40;99.90;;;;;;6223094;28;20042;-79
2023/11/22 06:43:59;;;;;;;14.18;6.75;;;2.40;99.90;;;;;;6231158;28;20050;-79
2023/11/22 06:47:00;;;;;;;12.57;7.22;;;2.30;99.90;;;;;;6220146;28;20403;-79
2023/11/22 06:50:04;;;;;;;8.18;5.95;;;2.30;99.90;;;;;;6199892;28;20166;-79
2023/11/22 06:53:06;;;;;;;15.68;7.22;;;2.30;99.90;;;;;;6235561;28;20059;-78
2023/11/22 06:56:07;;;;;;;8.80;6.22;;;2.20;99.90;;;;;;6222514;28;20502;-79
2023/11/22 06:59:10;;;;;;;9.15;5.85;;;2.20;99.90;;;;;;6215515;28;20053;-79
2023/11/22 07:02:14;;;;;;;8.15;5.60;;;2.20;99.90;;;;;;6210976;28;20049;-79
2023/11/22 07:05:16;;;;;;;9.20;5.65;;;2.20;99.90;;;;;;6226613;28;20096;-79
2023/11/22 07:08:18;;;;;;;9.65;5.95;;;2.20;99.90;;;;;;6223821;28;20056;-79
2023/11/22 07:11:24;;;;;;;8.25;5.50;;;2.10;99.90;;;;;;6219789;28;20042;-80
2023/11/22 07:14:28;;;;;;;10.02;5.53;;;2.10;99.90;;;;;;6219872;28;20142;-78
2023/11/22 07:17:30;;;;;;;7.00;5.32;;;2.00;99.90;;;;;;6217221;28;20058;-79
2023/11/22 07:20:33;;;;;;;7.55;5.97;;;2.00;99.90;;;;;;6218025;28;20093;-79
2023/11/22 07:23:35;;;;;;;6.80;4.88;;;2.00;99.90;;;;;;6226604;28;20069;-79
2023/11/22 07:26:37;;;;;;;7.97;5.47;;;2.00;99.90;;;;;;6217352;28;20168;-79
2023/11/22 07:29:41;;;;;;;9.45;5.35;;;2.00;99.90;;;;;;6213968;28;20050;-79
2023/11/22 07:32:44;;;;;;;9.30;5.25;;;2.00;99.90;;;;;;6215564;28;20046;-79
2023/11/22 07:35:46;;;;;;;7.10;5.07;;;2.00;99.90;;;;;;6226615;28;20050;-83
2023/11/22 07:38:49;;;;;;;8.38;4.97;;;2.00;99.90;;;;;;6218138;28;20053;-80
2023/11/22 07:41:52;;;;;;;6.07;3.90;;;2.00;99.90;;;;;;6216119;28;20541;-78
2023/11/22 07:44:56;;;;;;;5.97;4.60;;;2.10;99.90;;;;;;6219390;28;20037;-78
2023/11/22 07:47:59;;;;;;;12.15;5.63;;;2.20;99.90;;;;;;6215917;28;20518;-79
2023/11/22 07:51:00;;;;;;;6.95;3.85;;;2.20;99.90;;;;;;6237558;28;20204;-80
2023/11/22 07:54:02;;;;;;;8.25;3.60;;;2.30;99.90;;;;;;6237373;28;20045;-79
2023/11/22 07:57:04;;;;;;;5.88;4.10;;;2.40;99.90;;;;;;6214432;28;20042;-80
2023/11/22 08:00:09;;;;;;;8.45;4.47;;;2.50;99.90;;;;;;6214267;28;20046;-81
2023/11/22 08:03:10;;;;;;;6.75;4.43;;;2.60;99.90;;;;;;6212509;28;20054;-79
2023/11/22 08:06:13;;;;;;;5.43;3.25;;;2.70;99.90;;;;;;6220840;28;20040;-79
2023/11/22 08:09:16;;;;;;;4.95;3.33;;;2.90;99.90;;;;;;6227253;28;20116;-81
2023/11/22 08:12:18;;;;;;;8.23;3.08;;;3.00;99.90;;;;;;6227089;28;20177;-79
2023/11/22 08:15:21;;;;;;;6.05;4.32;;;3.20;99.90;;;;;;6222581;28;20041;-79
2023/11/22 08:18:23;;;;;;;4.43;2.75;;;3.30;99.90;;;;;;6226626;28;20045;-83
2023/11/22 08:21:25;;;;;;;6.38;3.72;;;3.50;99.90;;;;;;6225482;28;20049;-80
2023/11/22 08:24:27;;;;;;;4.07;2.85;;;3.70;99.90;;;;;;6226435;28;20050;-82
2023/11/22 08:27:28;;;;;;;6.57;3.83;;;3.90;99.90;;;;;;6248098;28;20038;-82
2023/11/22 08:30:35;;;;;;;4.80;2.42;;;4.10;99.90;;;;;;6199650;28;20049;-81
2023/11/22 08:33:37;;;;;;;4.40;3.20;;;4.30;99.90;;;;;;6230933;28;20425;-80
2023/11/22 08:36:39;;;;;;;5.65;3.97;;;4.40;99.90;;;;;;6216751;28;20164;-81
2023/11/22 08:39:40;;;;;;;7.15;4.80;;;4.60;99.90;;;;;;6203087;28;20057;-80
2023/11/22 08:42:43;;;;;;;4.78;3.30;;;4.80;99.90;;;;;;6220144;28;20057;-81
2023/11/22 08:45:46;;;;;;;4.38;3.60;;;5.10;99.90;;;;;;6217795;28;20049;-82
2023/11/22 08:48:48;;;;;;;4.22;2.90;;;5.30;99.90;;;;;;6233504;28;20499;-80
2023/11/22 08:51:50;;;;;;;6.85;3.25;;;5.50;99.90;;;;;;6210904;28;20125;-78
2023/11/22 08:54:52;;;;;;;4.60;3.20;;;5.80;99.90;;;;;;6222369;28;20049;-78
2023/11/22 08:57:54;;;;;;;5.03;3.33;;;5.70;99.90;;;;;;6224784;28;20457;-79
2023/11/22 09:00:58;;;;;;;3.80;2.92;;;5.30;99.90;;;;;;6224365;28;20049;-79
2023/11/22 09:03:59;;;;;;;4.35;3.95;;;5.00;99.90;;;;;;6221426;28;20463;-78
2023/11/22 09:07:01;;;;;;;12.98;3.83;;;4.90;99.90;;;;;;6221702;28;20419;-78
2023/11/22 09:10:09;;;;;;;3.78;3.25;;;4.80;99.90;;;;;;6219971;28;20061;-78
2023/11/22 09:13:15;;;;;;;3.22;2.65;;;4.80;99.90;;;;;;6223107;28;20085;-78
2023/11/22 09:16:19;;;;;;;4.20;3.60;;;4.70;99.90;;;;;;6219719;28;20053;-78
2023/11/22 09:19:21;;;;;;;4.40;3.83;;;4.80;99.90;;;;;;6220304;28;20423;-77
2023/11/22 09:22:22;;;;;;;4.70;3.78;;;4.80;99.90;;;;;;6218620;28;20122;-77
2023/11/22 09:25:25;;;;;;;4.50;3.65;;;4.80;99.90;;;;;;6221748;28;20045;-77
2023/11/22 09:28:27;;;;;;;7.15;3.42;;;4.80;99.90;;;;;;6219216;28;20117;-77
2023/11/22 09:31:30;;;;;;;5.13;4.45;;;5.00;99.90;;;;;;6218556;28;20076;-77
2023/11/22 09:34:32;;;;;;;4.40;3.13;;;5.10;99.90;;;;;;6217540;28;20052;-77
2023/11/22 09:37:35;;;;;;;3.58;3.13;;;5.20;99.90;;;;;;6218636;28;21466;-77
2023/11/22 09:40:37;;;;;;;7.88;4.35;;;5.30;99.90;;;;;;6219917;28;20045;-78
2023/11/22 09:43:40;;;;;;;3.92;3.53;;;5.40;99.90;;;;;;6221066;28;20053;-79
2023/11/22 09:46:45;;;;;;;7.05;5.03;;;5.40;99.90;;;;;;6221332;28;20053;-78
2023/11/22 09:49:52;;;;;;;8.18;4.63;;;5.30;99.90;;;;;;6220547;28;20050;-78
2023/11/22 09:53:00;;;;;;;7.90;5.03;;;5.30;99.90;;;;;;6216016;28;20046;-77
2023/11/22 09:56:04;;;;;;;12.55;7.28;;;5.20;99.90;;;;;;6220553;28;20064;-78
2023/11/22 09:59:07;;;;;;;25.70;23.50;;;5.10;99.90;;;;;;6222371;28;20084;-78
2023/11/22 10:02:11;;;;;;;5.55;4.50;;;5.00;99.90;;;;;;6219186;28;20042;-77
2023/11/22 10:05:13;;;;;;;5.03;4.05;;;5.00;99.90;;;;;;6218292;28;20045;-77
2023/11/22 10:08:17;;;;;;;6.43;4.20;;;5.00;99.90;;;;;;6221370;28;20544;-77
2023/11/22 10:11:21;;;;;;;6.80;6.13;;;5.00;99.90;;;;;;6221377;28;20061;-77
2023/11/22 10:14:26;;;;;;;8.10;3.85;;;4.90;99.90;;;;;;6219956;28;20069;-77
2023/11/22 10:17:29;;;;;;;4.95;4.45;;;4.90;99.90;;;;;;6223649;28;20056;-76
2023/11/22 10:20:38;;;;;;;6.47;3.97;;;4.90;99.90;;;;;;6218111;28;20049;-77
2023/11/22 10:23:41;;;;;;;5.05;4.10;;;5.00;99.90;;;;;;6221542;28;20045;-77
2023/11/22 10:26:43;;;;;;;5.60;4.28;;;5.20;99.90;;;;;;6218824;28;20056;-77
2023/11/22 10:29:47;;;;;;;5.63;3.72;;;5.40;99.90;;;;;;6221279;28;20041;-77
2023/11/22 10:32:50;;;;;;;8.27;6.30;;;5.50;99.90;;;;;;6222365;28;20045;-78
2023/11/22 10:35:52;;;;;;;7.80;4.78;;;5.60;99.90;;;;;;6216631;28;20054;-76
2023/11/22 10:38:55;;;;;;;6.38;3.60;;;5.70;99.90;;;;;;6219917;28;20046;-76
2023/11/22 10:41:58;;;;;;;4.70;3.45;;;5.90;99.90;;;;;;6217205;28;20056;-76
2023/11/22 10:45:03;;;;;;;6.05;3.72;;;5.90;99.90;;;;;;6216187;28;20373;-77
2023/11/22 10:48:08;;;;;;;5.35;4.18;;;5.80;99.90;;;;;;6215476;28;20046;-76
2023/11/22 10:51:14;;;;;;;7.68;4.75;;;5.80;99.90;;;;;;6239988;28;20042;-77
2023/11/22 10:54:16;;;;;;;5.50;3.90;;;5.70;99.90;;;;;;6236025;28;20044;-78
2023/11/22 10:57:23;;;;;;;5.85;5.20;;;5.70;99.90;;;;;;6234820;28;20449;-77
2023/11/22 11:00:27;;;;;;;6.67;6.07;;;5.80;99.90;;;;;;6222412;28;20046;-77
2023/11/22 11:03:38;;;;;;;5.90;5.30;;;5.80;99.90;;;;;;6237562;28;20305;-77
2023/11/22 11:06:42;;;;;;;6.43;5.82;;;5.90;99.90;;;;;;6213589;28;20049;-78
2023/11/22 11:09:47;;;;;;;5.85;3.95;;;6.00;99.90;;;;;;6205993;28;20048;-77
2023/11/22 11:12:49;;;;;;;3.03;2.72;;;6.30;99.90;;;;;;6213191;28;20396;-77
2023/11/22 11:15:54;;;;;;;5.03;3.95;;;6.70;99.90;;;;;;6209708;28;20050;-77
2023/11/22 11:18:57;;;;;;;5.90;3.65;;;7.20;99.90;;;;;;6222224;28;20053;-80
2023/11/22 11:22:00;;;;;;;5.93;4.95;;;7.50;99.90;;;;;;6209917;28;20043;-78
2023/11/22 11:25:05;;;;;;;6.18;4.20;;;7.60;99.90;;;;;;6216927;28;20567;-77
2023/11/22 11:28:12;;;;;;;7.20;5.55;;;7.60;99.90;;;;;;6212403;28;20038;-78
2023/11/22 11:31:15;;;;;;;7.65;4.35;;;7.40;99.90;;;;;;6200396;28;20046;-77
2023/11/22 11:34:18;;;;;;;5.47;3.90;;;7.30;99.90;;;;;;6242268;28;20042;-79
2023/11/22 11:37:20;;;;;;;5.28;3.75;;;7.20;99.90;;;;;;6209513;28;20042;-80
2023/11/22 11:40:32;;;;;;;6.13;4.20;;;7.10;99.90;;;;;;6213433;28;20038;-78
2023/11/22 11:43:41;;;;;;;5.95;4.78;;;7.10;99.90;;;;;;6242690;28;20056;-79
2023/11/22 11:46:43;;;;;;;5.07;4.53;;;7.10;99.90;;;;;;6224566;28;20250;-78
2023/11/22 11:49:46;;;;;;;6.47;4.78;;;6.90;99.90;;;;;;6226899;28;20054;-78
2023/11/22 11:52:48;;;;;;;6.70;3.67;;;6.90;99.90;;;;;;6217588;28;20538;-79
2023/11/22 11:55:52;;;;;;;5.13;4.72;;;6.90;99.90;;;;;;6220778;28;20046;-80
2023/11/22 11:58:58;;;;;;;5.60;3.65;;;6.80;99.90;;;;;;6221867;28;20070;-81
2023/11/22 12:02:00;;;;;;;4.25;3.47;;;6.70;99.90;;;;;;6217024;28;20056;-78
2023/11/22 12:05:08;;;;;;;5.68;4.38;;;6.70;99.90;;;;;;6225464;28;20099;-79
2023/11/22 12:08:10;;;;;;;8.02;5.30;;;6.60;99.90;;;;;;6222670;28;20030;-78
2023/11/22 12:11:11;;;;;;;7.55;5.20;;;6.50;99.90;;;;;;6225846;28;20564;-79
2023/11/22 12:14:13;;;;;;;12.98;7.00;;;6.40;99.90;;;;;;6224577;28;20046;-79
2023/11/22 12:17:16;;;;;;;9.98;7.10;;;6.40;99.90;;;;;;6225329;28;20040;-83
2023/11/22 12:20:21;;;;;;;7.43;4.57;;;6.40;99.90;;;;;;6222762;28;20788;-79
2023/11/22 12:23:23;;;;;;;16.15;6.80;;;6.30;99.90;;;;;;6237685;28;20076;-79
2023/11/22 12:26:24;;;;;;;26.25;17.33;;;6.30;99.90;;;;;;6236174;22;20056;-79
2023/11/22 12:29:26;;;;;;;5.95;4.82;;;6.30;99.90;;;;;;6242177;28;20413;-78
2023/11/22 12:32:28;;;;;;;4.18;3.70;;;6.20;99.90;;;;;;6233240;28;20042;-76
2023/11/22 12:35:33;;;;;;;4.88;3.92;;;6.20;99.90;;;;;;6253835;28;20054;-80
2023/11/22 12:38:36;;;;;;;8.13;5.25;;;6.10;99.90;;;;;;6231214;28;20625;-78
2023/11/22 12:41:43;;;;;;;7.05;3.67;;;6.20;99.90;;;;;;6231177;28;20046;-78
2023/11/22 12:44:49;;;;;;;6.00;3.67;;;6.20;99.90;;;;;;6231852;28;20056;-78
2023/11/22 12:47:51;;;;;;;6.43;5.72;;;6.10;99.90;;;;;;6229357;28;20057;-79
2023/11/22 12:50:54;;;;;;;14.10;10.55;;;6.10;99.90;;;;;;6230226;28;20046;-79
2023/11/22 12:53:57;;;;;;;7.82;5.55;;;6.10;99.90;;;;;;6228748;28;20072;-78
2023/11/22 12:56:58;;;;;;;8.98;6.40;;;6.20;99.90;;;;;;6231618;28;20057;-79
2023/11/22 13:00:00;;;;;;;11.40;10.25;;;6.10;99.90;;;;;;6237524;28;20061;-78
2023/11/22 13:03:02;;;;;;;7.05;5.28;;;6.20;99.90;;;;;;6241786;28;20046;-79
2023/11/22 13:06:06;;;;;;;8.07;5.68;;;6.20;99.90;;;;;;6236437;28;20499;-77
2023/11/22 13:09:13;;;;;;;5.28;4.40;;;6.20;99.90;;;;;;6223323;28;20042;-78
2023/11/22 13:12:15;;;;;;;7.38;4.38;;;6.20;99.90;;;;;;6227564;28;20056;-79
2023/11/22 13:15:17;;;;;;;8.52;5.07;;;6.20;99.90;;;;;;6236252;28;20061;-77
2023/11/22 13:18:19;;;;;;;6.68;6.00;;;6.30;99.90;;;;;;6231818;28;20037;-78
2023/11/22 13:21:22;;;;;;;6.18;5.43;;;6.30;99.90;;;;;;6230556;28;20466;-78
2023/11/22 13:24:24;;;;;;;5.93;4.88;;;6.30;99.90;;;;;;6235755;28;20056;-78
2023/11/22 13:27:27;;;;;;;5.30;4.65;;;6.20;99.90;;;;;;6242034;28;20055;-79
2023/11/22 13:30:29;;;;;;;11.15;6.10;;;6.20;99.90;;;;;;6229872;28;20132;-78
2023/11/22 13:33:30;;;;;;;9.18;6.15;;;6.20;99.90;;;;;;6241254;28;20041;-78
2023/11/22 13:36:33;;;;;;;12.93;6.68;;;6.10;99.90;;;;;;6227969;28;20046;-78
2023/11/22 13:39:36;;;;;;;14.00;9.40;;;6.10;99.90;;;;;;6242007;28;20044;-80
2023/11/22 13:42:37;;;;;;;11.57;7.68;;;6.00;99.90;;;;;;6236370;28;20053;-79
2023/11/22 13:45:41;;;;;;;19.33;11.38;;;6.00;99.90;;;;;;6233365;28;20057;-79
2023/11/22 13:48:43;;;;;;;9.38;5.45;;;6.00;99.90;;;;;;6234088;28;20054;-79
2023/11/22 13:51:46;;;;;;;7.57;6.65;;;6.00;99.90;;;;;;6231842;28;20116;-79
2023/11/22 13:54:50;;;;;;;10.68;5.63;;;5.90;99.90;;;;;;6236492;28;20153;-79
2023/11/22 13:57:52;;;;;;;13.13;8.32;;;5.90;99.90;;;;;;6235595;28;20128;-79
2023/11/22 14:00:55;;;;;;;9.10;5.55;;;6.00;99.90;;;;;;6243515;28;20041;-77
2023/11/22 14:03:56;;;;;;;6.47;5.20;;;6.00;99.90;;;;;;6236349;28;20054;-76
2023/11/22 14:07:00;;;;;;;10.43;7.50;;;6.00;99.90;;;;;;6235731;28;20049;-77
2023/11/22 14:10:03;;;;;;;9.55;4.90;;;6.00;99.90;;;;;;6232422;28;20052;-79
2023/11/22 14:13:05;;;;;;;13.27;8.73;;;6.10;99.90;;;;;;6230690;28;20582;-78
2023/11/22 14:16:08;;;;;;;6.35;4.82;;;6.00;99.90;;;;;;6233007;28;20113;-78
2023/11/22 14:19:10;;;;;;;9.00;4.93;;;6.00;99.90;;;;;;6233420;28;20097;-78
2023/11/22 14:22:13;;;;;;;9.02;4.47;;;5.90;99.90;;;;;;6227300;28;20057;-79
2023/11/22 14:25:15;;;;;;;6.95;5.05;;;5.80;99.90;;;;;;6227041;28;20049;-80
2023/11/22 14:28:17;;;;;;;;;;;5.70;99.90;;;;;;6230033;28;20077;-77
2023/11/22 14:31:18;;;;;;;;;;;7.10;99.90;;;;;;6225873;28;19944;-78
2023/11/22 14:34:20;;;;;;;;;;;5.90;99.90;;;;;;6230040;28;20165;-79
2023/11/22 14:37:23;;;;;;;;;;;5.40;99.90;;;;;;6227146;28;20452;-80
2023/11/22 14:40:24;;;;;;;;;;;5.40;99.90;;;;;;6227696;28;19964;-80
2023/11/22 14:43:26;;;;;;;;;;;5.30;99.90;;;;;;6234069;28;20024;-78
2023/11/22 14:46:28;;;;;;;15.98;12.43;;;5.30;99.90;;;;;;6229103;28;20436;-80
2023/11/22 14:49:29;;;;;;;7.10;6.28;;;6.60;99.90;;;;;;6233689;28;20056;-79
2023/11/22 14:52:33;;;;;;;16.88;5.35;;;5.70;99.90;;;;;;6233165;28;20522;-82
2023/11/22 14:55:40;;;;;;;17.58;5.63;;;5.80;99.90;;;;;;6229409;28;20060;-84
2023/11/22 14:58:43;;;;;;;8.07;5.93;;;6.70;99.90;;;;;;6226039;28;20049;-81
2023/11/22 15:01:46;;;;;;;10.98;6.63;;;7.40;99.90;;;;;;6235472;28;20057;-77
2023/11/22 15:04:48;;;;;;;9.68;6.13;;;6.90;99.90;;;;;;6238697;28;20041;-81
2023/11/22 15:07:54;;;;;;;16.52;10.63;;;6.50;99.90;;;;;;6233262;28;20060;-81
2023/11/22 15:11:02;;;;;;;13.43;8.68;;;6.30;99.90;;;;;;6232717;28;20037;-80
2023/11/22 15:14:07;;;;;;;10.27;6.72;;;6.10;99.90;;;;;;6238339;28;20057;-80
2023/11/22 15:17:10;;;;;;;18.23;10.65;;;5.90;99.90;;;;;;6210127;28;21118;-79
2023/11/22 15:20:15;;;;;;;11.50;9.45;;;5.80;99.90;;;;;;6221618;28;20053;-81
2023/11/22 15:23:20;;;;;;;7.32;6.00;;;5.70;99.90;;;;;;6230838;28;20042;-80
2023/11/22 15:26:22;;;;;;;14.20;5.47;;;5.60;99.90;;;;;;6232784;28;20057;-82
2023/11/22 15:29:24;;;;;;;6.00;5.38;;;5.50;99.90;;;;;;6231626;28;20419;-80
2023/11/22 15:32:28;;;;;;;9.25;5.18;;;5.30;99.90;;;;;;6234333;28;20073;-79
2023/11/22 15:35:29;;;;;;;7.65;4.70;;;5.20;99.90;;;;;;6230833;28;20069;-80
2023/11/22 15:38:32;;;;;;;7.03;5.03;;;5.10;99.90;;;;;;6231917;28;20046;-79
2023/11/22 15:41:34;;;;;;;9.45;5.57;;;5.00;99.90;;;;;;6231704;28;20049;-78
2023/11/22 15:44:36;;;;;;;7.80;5.05;;;4.90;99.90;;;;;;6230047;28;20046;-80
2023/11/22 15:47:38;;;;;;;6.38;5.00;;;4.80;99.90;;;;;;6229474;28;20041;-80
2023/11/22 15:50:40;;;;;;;9.02;5.45;;;4.70;99.90;;;;;;6237872;28;20041;-80
2023/11/22 15:53:43;;;;;;;8.40;6.05;;;4.70;99.90;;;;;;6229693;28;20077;-79
2023/11/22 15:56:45;;;;;;;8.30;5.35;;;4.70;99.90;;;;;;6233147;28;20053;-79
2023/11/22 15:59:48;;;;;;;10.43;7.63;;;4.70;99.90;;;;;;6233546;28;20137;-78
2023/11/22 16:02:51;;;;;;;11.43;7.00;;;4.70;99.90;;;;;;6230892;28;20128;-82